createdAt,value
2018-09-23T00:01:52.742Z,12.83
2018-09-23T00:04:20.761Z,13.80
2018-09-23T00:06:48.854Z,14.37
2018-09-23T00:09:16.962Z,12.90
2018-09-23T00:11:45.075Z,11.97
2018-09-23T00:14:15.046Z,13.30
2018-09-23T00:16:43.390Z,13.40
2018-09-23T00:19:11.559Z,12.63
2018-09-23T00:21:39.829Z,12.47
2018-09-23T00:24:07.928Z,13.03
2018-09-23T00:26:35.929Z,13.30
2018-09-23T00:29:03.995Z,12.87
2018-09-23T00:31:32.179Z,13.13
2018-09-23T00:34:00.417Z,14.53
2018-09-23T00:36:28.689Z,13.70
2018-09-23T00:38:56.807Z,13.53
2018-09-23T00:41:24.928Z,13.00
2018-09-23T00:43:52.971Z,13.30
2018-09-23T00:46:20.977Z,14.27
2018-09-23T00:48:49.039Z,13.07
2018-09-23T00:51:17.124Z,14.27
2018-09-23T00:53:45.223Z,13.90
2018-09-23T00:56:13.259Z,13.60
2018-09-23T00:58:41.413Z,13.40
2018-09-23T01:01:09.592Z,13.83
2018-09-23T01:03:37.693Z,14.20
2018-09-23T01:06:05.911Z,14.20
2018-09-23T01:08:34.025Z,13.63
2018-09-23T01:11:02.088Z,14.33
2018-09-23T01:13:30.307Z,15.17
2018-09-23T01:15:58.404Z,13.73
2018-09-23T01:18:26.460Z,15.80
2018-09-23T01:20:54.531Z,14.83
2018-09-23T01:23:22.577Z,15.20
2018-09-23T01:25:50.733Z,15.40
2018-09-23T01:28:18.805Z,13.23
2018-09-23T01:30:46.812Z,14.87
2018-09-23T01:33:14.895Z,14.77
2018-09-23T01:35:42.967Z,14.63
2018-09-23T01:38:11.226Z,16.33
2018-09-23T01:40:39.593Z,15.77
2018-09-23T01:43:07.817Z,14.27
2018-09-23T01:45:36.120Z,14.17
2018-09-23T01:48:04.170Z,15.90
2018-09-23T01:50:32.184Z,15.23
2018-09-23T01:53:00.301Z,14.50
2018-09-23T01:55:28.381Z,14.57
2018-09-23T01:57:56.393Z,14.53
2018-09-23T02:00:24.529Z,14.47
2018-09-23T02:02:52.665Z,15.53
2018-09-23T02:05:20.722Z,14.70
2018-09-23T02:07:48.797Z,15.00
2018-09-23T02:10:16.843Z,14.53
2018-09-23T02:12:44.985Z,15.47
2018-09-23T02:15:13.095Z,15.40
2018-09-23T02:17:41.228Z,14.10
2018-09-23T02:20:09.444Z,14.57
2018-09-23T02:22:37.763Z,14.47
2018-09-23T02:25:05.963Z,14.50
2018-09-23T02:27:34.014Z,14.27
2018-09-23T02:30:02.073Z,14.20
2018-09-23T02:32:30.302Z,13.90
2018-09-23T02:34:58.364Z,14.37
2018-09-23T02:37:26.556Z,14.67
2018-09-23T02:39:54.678Z,13.93
2018-09-23T02:42:22.765Z,14.13
2018-09-23T02:44:50.870Z,15.37
2018-09-23T02:47:18.897Z,15.00
2018-09-23T02:49:47.011Z,14.07
2018-09-23T02:52:15.124Z,14.33
2018-09-23T02:54:43.243Z,14.07
2018-09-23T02:57:11.651Z,14.77
2018-09-23T02:59:39.766Z,14.67
2018-09-23T03:02:07.808Z,14.33
2018-09-23T03:04:35.971Z,16.23
2018-09-23T03:07:04.104Z,15.27
2018-09-23T03:09:32.230Z,13.67
2018-09-23T03:12:00.408Z,14.63
2018-09-23T03:14:28.541Z,15.87
2018-09-23T03:16:56.606Z,16.60
2018-09-23T03:19:25.203Z,16.00
2018-09-23T03:21:53.377Z,15.03
2018-09-23T03:24:21.476Z,14.17
2018-09-23T03:27:02.724Z,15.13
2018-09-23T03:29:31.541Z,14.27
2018-09-23T03:31:59.737Z,14.47
2018-09-23T03:34:28.216Z,16.27
2018-09-23T03:36:56.949Z,17.60
2018-09-23T03:39:24.950Z,15.17
2018-09-23T03:41:53.049Z,14.33
2018-09-23T03:44:21.579Z,15.17
2018-09-23T03:46:49.633Z,14.47
2018-09-23T03:49:17.763Z,15.70
2018-09-23T03:51:46.031Z,14.53
2018-09-23T03:54:14.295Z,13.73
2018-09-23T03:56:44.338Z,14.50
2018-09-23T03:59:13.009Z,14.67
2018-09-23T04:01:41.114Z,14.80
2018-09-23T04:04:09.801Z,13.90
2018-09-23T04:06:37.833Z,12.93
2018-09-23T05:03:09.948Z,14.37
2018-09-23T05:05:38.421Z,13.30
2018-09-23T05:08:06.853Z,14.20
2018-09-23T05:10:35.703Z,13.63
2018-09-23T05:13:04.305Z,13.90
2018-09-23T05:15:32.628Z,13.60
2018-09-23T05:18:02.066Z,13.13
2018-09-23T05:20:30.220Z,13.63
2018-09-23T05:22:58.521Z,13.10
2018-09-23T05:25:26.957Z,12.83
2018-09-23T05:27:55.195Z,14.20
2018-09-23T05:30:23.601Z,13.63
2018-09-23T05:32:52.983Z,13.93
2018-09-23T05:35:22.143Z,13.23
2018-09-23T05:37:50.779Z,13.53
2018-09-23T05:40:19.623Z,13.73
2018-09-23T05:42:47.886Z,12.33
2018-09-23T05:45:27.063Z,14.20
2018-09-23T05:47:56.357Z,14.43
2018-09-23T05:50:26.603Z,13.03
2018-09-23T05:52:56.389Z,12.57
2018-09-23T05:55:36.052Z,13.83
2018-09-23T05:58:05.857Z,14.37
2018-09-23T06:00:39.212Z,14.50
2018-09-23T06:03:08.829Z,13.23
2018-09-23T06:05:38.379Z,13.27
2018-09-23T06:08:07.957Z,13.40
2018-09-23T06:10:36.675Z,12.63
2018-09-23T06:13:06.941Z,13.13
2018-09-23T06:15:35.583Z,15.13
2018-09-23T06:18:06.269Z,20.20
2018-09-23T06:20:36.029Z,17.93
2018-09-23T06:23:07.034Z,13.83
2018-09-23T06:25:37.607Z,12.37
2018-09-23T06:28:06.182Z,13.63
2018-09-23T06:30:35.558Z,12.70
2018-09-23T06:33:08.602Z,12.27
2018-09-23T06:35:38.113Z,12.20
2018-09-23T06:38:06.788Z,12.40
2018-09-23T06:40:38.361Z,12.90
2018-09-23T06:43:11.138Z,12.87
2018-09-23T06:45:40.324Z,11.67
2018-09-23T06:48:09.616Z,11.70
2018-09-23T06:50:41.760Z,11.57
2018-09-23T06:53:10.591Z,10.77
2018-09-23T06:55:39.588Z,11.90
2018-09-23T06:58:10.347Z,11.70
2018-09-23T07:00:40.002Z,12.87
2018-09-23T07:03:10.307Z,12.50
2018-09-23T07:05:44.740Z,12.57
2018-09-23T07:08:15.414Z,13.07
2018-09-23T07:10:45.202Z,11.60
2018-09-23T07:13:14.123Z,12.30
2018-09-23T07:15:42.510Z,12.37
2018-09-23T07:18:11.139Z,12.27
2018-09-23T07:20:39.834Z,12.20
2018-09-23T07:23:09.216Z,12.03
2018-09-23T07:25:38.382Z,11.67
2018-09-23T07:28:07.275Z,12.13
2018-09-23T07:30:35.988Z,12.40
2018-09-23T07:33:05.544Z,12.93
2018-09-23T07:35:34.816Z,11.93
2018-09-23T07:38:03.809Z,12.40
2018-09-23T07:40:33.271Z,12.33
2018-09-23T07:43:11.221Z,12.40
2018-09-23T07:45:41.885Z,11.93
2018-09-23T07:48:13.510Z,12.80
2018-09-23T07:50:42.457Z,13.90
2018-09-23T07:53:18.439Z,12.70
2018-09-23T07:55:47.699Z,14.17
2018-09-23T07:58:20.088Z,11.83
2018-09-23T08:00:53.292Z,13.27
2018-09-23T08:03:25.302Z,13.40
2018-09-23T08:05:56.667Z,12.83
2018-09-23T08:08:25.705Z,13.10
2018-09-23T08:10:55.761Z,12.30
2018-09-23T08:13:25.136Z,12.50
2018-09-23T08:15:53.817Z,12.80
2018-09-23T08:18:23.235Z,11.53
2018-09-23T08:20:53.568Z,12.30
2018-09-23T08:23:22.498Z,12.87
2018-09-23T08:25:51.188Z,12.13
2018-09-23T08:28:20.663Z,12.83
2018-09-23T08:30:49.802Z,15.37
2018-09-23T08:33:18.513Z,19.33
2018-09-23T08:35:47.497Z,14.60
2018-09-23T08:38:16.143Z,13.77
2018-09-23T08:40:44.936Z,12.20
2018-09-23T08:43:14.401Z,13.10
2018-09-23T08:45:43.479Z,12.57
2018-09-23T08:48:14.383Z,13.63
2018-09-23T08:50:45.796Z,12.20
2018-09-23T08:53:15.260Z,12.20
2018-09-23T08:55:44.323Z,13.07
2018-09-23T08:58:14.213Z,11.97
2018-09-23T09:00:43.274Z,11.83
2018-09-23T09:03:11.827Z,12.70
2018-09-23T09:05:42.233Z,12.93
2018-09-23T09:08:14.399Z,12.47
2018-09-23T09:10:43.865Z,11.48
2018-09-23T09:13:12.826Z,11.22
2018-09-23T09:15:43.048Z,12.25
2018-09-23T09:18:13.246Z,11.50
2018-09-23T09:20:42.112Z,12.25
2018-09-23T09:23:11.081Z,12.45
2018-09-23T09:25:40.070Z,11.20
2018-09-23T09:28:08.800Z,11.78
2018-09-23T09:30:38.218Z,11.57
2018-09-23T09:33:07.067Z,11.68
2018-09-23T09:35:36.143Z,11.33
2018-09-23T09:38:05.988Z,12.53
2018-09-23T09:40:34.692Z,11.88
2018-09-23T09:43:03.577Z,11.20
2018-09-23T09:45:32.739Z,11.28
2018-09-23T09:48:06.143Z,12.10
2018-09-23T09:50:36.356Z,12.73
2018-09-23T09:53:05.676Z,11.45
2018-09-23T09:55:37.023Z,11.50
2018-09-23T09:58:14.437Z,12.40
2018-09-23T10:00:50.802Z,10.82
2018-09-23T10:03:22.557Z,11.53
2018-09-23T10:06:02.793Z,11.08
2018-09-23T10:08:43.571Z,10.72
2018-09-23T10:11:16.454Z,10.43
2018-09-23T10:13:45.814Z,11.08
2018-09-23T10:16:19.471Z,13.20
2018-09-23T10:18:48.455Z,11.78
2018-09-23T10:21:17.764Z,10.65
2018-09-23T10:23:47.861Z,12.00
2018-09-23T10:26:18.657Z,9.25
2018-09-23T10:28:47.821Z,8.35
2018-09-23T10:31:18.904Z,9.95
2018-09-23T10:33:48.087Z,8.70
2018-09-23T10:36:18.044Z,9.75
2018-09-23T10:38:46.901Z,8.38
2018-09-23T10:41:16.197Z,14.90
2018-09-23T10:43:45.881Z,21.80
2018-09-23T10:46:17.433Z,10.18
2018-09-23T10:48:47.822Z,14.73
2018-09-23T10:51:16.848Z,11.25
2018-09-23T10:53:46.714Z,11.93
2018-09-23T10:56:16.071Z,23.00
2018-09-23T10:58:45.034Z,27.65
2018-09-23T11:01:14.938Z,8.18
2018-09-23T11:04:02.173Z,7.95
2018-09-23T11:06:33.312Z,7.45
2018-09-23T11:09:01.878Z,8.30
2018-09-23T11:11:31.290Z,8.73
2018-09-23T11:14:02.011Z,10.72
2018-09-23T11:16:31.369Z,9.13
2018-09-23T11:19:03.643Z,8.60
2018-09-23T11:21:33.466Z,7.70
2018-09-23T11:24:04.030Z,7.72
2018-09-23T11:26:34.154Z,8.15
2018-09-23T11:29:03.441Z,8.63
2018-09-23T11:31:32.194Z,8.88
2018-09-23T11:34:01.212Z,6.65
2018-09-23T11:36:30.350Z,8.03
2018-09-23T11:38:59.439Z,8.08
2018-09-23T11:41:28.970Z,7.67
2018-09-23T11:43:58.286Z,7.58
2018-09-23T11:46:27.538Z,7.97
2018-09-23T11:48:58.392Z,7.62
2018-09-23T11:51:28.296Z,7.95
2018-09-23T11:53:59.134Z,7.45
2018-09-23T11:56:28.658Z,7.60
2018-09-23T11:58:58.059Z,7.50
2018-09-23T12:01:27.340Z,7.83
2018-09-23T12:03:55.900Z,7.95
2018-09-23T12:06:25.516Z,7.83
2018-09-23T12:08:57.355Z,7.67
2018-09-23T12:11:28.626Z,8.45
2018-09-23T12:13:57.502Z,8.43
2018-09-23T12:16:26.407Z,7.42
2018-09-23T12:18:56.009Z,7.00
2018-09-23T12:21:24.610Z,7.15
2018-09-23T12:23:55.912Z,7.42
2018-09-23T12:26:25.671Z,7.70
2018-09-23T12:28:59.540Z,6.75
2018-09-23T12:31:28.822Z,6.22
2018-09-23T12:34:00.636Z,6.97
2018-09-23T12:36:30.198Z,6.28
2018-09-23T12:38:59.902Z,6.78
2018-09-23T12:41:30.119Z,5.90
2018-09-23T12:44:05.084Z,6.35
2018-09-23T12:46:37.911Z,5.87
2018-09-23T12:49:14.864Z,6.35
2018-09-23T12:51:48.691Z,5.90
2018-09-23T12:54:18.320Z,6.28
2018-09-23T12:56:49.133Z,6.47
2018-09-23T12:59:19.761Z,6.55
2018-09-23T13:01:49.039Z,6.58
2018-09-23T13:04:19.060Z,6.03
2018-09-23T13:06:47.994Z,6.08
2018-09-23T13:09:18.051Z,6.80
2018-09-23T13:11:47.206Z,5.75
2018-09-23T13:14:16.198Z,5.62
2018-09-23T13:16:45.160Z,5.53
2018-09-23T13:19:14.147Z,6.08
2018-09-23T13:21:43.254Z,5.72
2018-09-23T13:24:12.124Z,5.78
2018-09-23T13:26:41.135Z,6.33
2018-09-23T13:29:10.047Z,5.75
2018-09-23T13:31:38.746Z,6.40
2018-09-23T13:34:07.578Z,6.80
2018-09-23T13:36:36.286Z,5.78
2018-09-23T13:39:05.703Z,6.60
2018-09-23T13:41:39.337Z,6.00
2018-09-23T13:44:13.428Z,6.05
2018-09-23T13:46:46.422Z,6.62
2018-09-23T13:49:16.896Z,7.12
2018-09-23T13:52:00.295Z,6.35
2018-09-23T13:54:30.409Z,6.05
2018-09-23T13:56:59.119Z,6.65
2018-09-23T13:59:27.917Z,6.25
2018-09-23T14:01:57.458Z,6.08
2018-09-23T14:04:27.097Z,6.35
2018-09-23T14:06:56.370Z,6.35
2018-09-23T14:09:25.576Z,6.70
2018-09-23T14:11:54.303Z,6.42
2018-09-23T14:14:24.825Z,6.35
2018-09-23T14:16:54.356Z,6.67
2018-09-23T14:19:26.871Z,6.40
2018-09-23T14:21:57.858Z,5.83
2018-09-23T14:24:27.255Z,6.65
2018-09-23T14:26:57.055Z,6.20
2018-09-23T14:29:27.012Z,6.30
2018-09-23T14:31:56.086Z,6.25
2018-09-23T14:34:25.266Z,6.83
2018-09-23T14:36:54.185Z,5.85
2018-09-23T14:39:22.923Z,6.22
2018-09-23T14:41:55.739Z,6.55
2018-09-23T14:44:24.792Z,7.30
2018-09-23T14:48:24.627Z,7.30
2018-09-23T14:50:53.846Z,7.65
2018-09-23T14:53:22.574Z,6.20
2018-09-23T14:55:53.366Z,6.08
2018-09-23T14:58:22.233Z,6.78
2018-09-23T15:00:51.093Z,7.08
2018-09-23T15:03:21.781Z,7.15
2018-09-23T15:05:55.514Z,6.60
2018-09-23T15:08:31.247Z,7.35
2018-09-23T15:11:02.719Z,7.67
2018-09-23T15:13:33.303Z,7.10
2018-09-23T15:16:02.682Z,6.62
2018-09-23T15:18:32.756Z,6.58
2018-09-23T15:21:01.366Z,6.12
2018-09-23T15:23:30.372Z,6.33
2018-09-23T15:26:01.392Z,6.95
2018-09-23T15:28:30.015Z,6.47
2018-09-23T15:30:59.136Z,7.05
2018-09-23T15:33:28.089Z,6.40
2018-09-23T15:35:59.964Z,7.37
2018-09-23T15:38:29.763Z,6.67
2018-09-23T15:40:58.770Z,6.72
2018-09-23T15:43:27.429Z,6.42
2018-09-23T15:45:56.598Z,6.70
2018-09-23T15:48:25.114Z,6.37
2018-09-23T15:50:53.535Z,6.25
2018-09-23T15:53:22.019Z,7.37
2018-09-23T15:55:50.567Z,6.87
2018-09-23T15:58:19.625Z,6.50
2018-09-23T16:00:47.996Z,6.55
2018-09-23T16:03:16.444Z,6.90
2018-09-23T16:05:44.978Z,6.35
2018-09-23T16:08:13.639Z,5.92
2018-09-23T16:10:42.092Z,6.75
2018-09-23T16:13:10.896Z,6.53
2018-09-23T16:15:39.361Z,7.75
2018-09-23T16:18:07.684Z,6.10
2018-09-23T16:20:36.205Z,7.92
2018-09-23T16:23:04.712Z,7.10
2018-09-23T16:25:33.367Z,8.75
2018-09-23T16:28:02.263Z,8.43
2018-09-23T16:30:30.730Z,8.00
2018-09-23T16:32:59.452Z,8.18
2018-09-23T16:35:27.918Z,9.17
2018-09-23T16:37:56.292Z,8.87
2018-09-23T16:40:24.639Z,10.30
2018-09-23T16:42:52.972Z,8.77
2018-09-23T16:45:21.271Z,9.27
2018-09-23T16:47:50.056Z,8.27
2018-09-23T16:50:18.314Z,9.57
2018-09-23T16:52:46.703Z,8.47
2018-09-23T16:55:14.927Z,9.37
2018-09-23T16:57:44.274Z,9.87
2018-09-23T17:00:12.924Z,9.93
2018-09-23T17:02:41.346Z,10.13
2018-09-23T17:05:09.630Z,9.40
2018-09-23T17:07:37.840Z,10.20
2018-09-23T17:10:06.515Z,9.60
2018-09-23T17:12:35.316Z,10.03
2018-09-23T17:15:03.631Z,9.83
2018-09-23T17:17:32.204Z,9.23
2018-09-23T17:20:01.413Z,9.47
2018-09-23T17:22:29.985Z,9.30
2018-09-23T17:24:58.554Z,9.43
2018-09-23T17:27:27.046Z,9.80
2018-09-23T17:29:55.847Z,9.97
2018-09-23T17:32:24.173Z,9.73
2018-09-23T17:34:52.546Z,10.33
2018-09-23T17:37:21.323Z,9.40
2018-09-23T17:39:50.400Z,9.03
2018-09-23T17:42:23.170Z,9.50
2018-09-23T17:44:51.891Z,9.37
2018-09-23T17:47:20.408Z,9.17
2018-09-23T17:49:49.106Z,8.97
2018-09-23T17:52:18.082Z,9.57
2018-09-23T17:54:46.533Z,9.17
2018-09-23T17:57:14.902Z,9.80
2018-09-23T17:59:43.352Z,9.00
2018-09-23T18:02:11.885Z,9.77
2018-09-23T18:04:40.687Z,9.83
2018-09-23T18:07:09.576Z,10.57
2018-09-23T18:09:39.535Z,9.20
2018-09-23T18:12:09.560Z,9.23
2018-09-23T18:14:38.604Z,10.03
2018-09-23T18:17:08.548Z,9.43
2018-09-23T18:19:40.098Z,8.97
2018-09-23T18:22:10.475Z,9.37
2018-09-23T18:24:39.772Z,9.03
2018-09-23T18:27:10.629Z,10.03
2018-09-23T18:29:39.628Z,9.80
2018-09-23T18:32:08.237Z,9.80
2018-09-23T18:34:36.811Z,8.80
2018-09-23T18:37:05.702Z,9.30
2018-09-23T18:39:35.046Z,9.27
2018-09-23T18:42:03.423Z,9.00
2018-09-23T18:44:31.703Z,9.33
2018-09-23T18:46:59.917Z,9.53
2018-09-23T18:49:28.179Z,10.00
2018-09-23T18:51:56.513Z,9.40
2018-09-23T18:54:30.284Z,9.40
2018-09-23T18:56:58.631Z,9.40
2018-09-23T18:59:26.937Z,9.00
2018-09-23T19:01:55.251Z,9.53
2018-09-23T19:04:24.901Z,9.30
2018-09-23T19:06:53.468Z,9.73
2018-09-23T19:09:22.009Z,10.57
2018-09-23T19:11:50.388Z,9.37
2018-09-23T19:14:18.804Z,10.00
2018-09-23T19:16:47.377Z,9.47
2018-09-23T19:19:15.941Z,9.40
2018-09-23T19:21:44.438Z,10.50
2018-09-23T19:24:13.396Z,10.00
2018-09-23T19:26:42.036Z,9.93
2018-09-23T19:29:10.487Z,9.53
2018-09-23T19:31:38.909Z,10.77
2018-09-23T19:34:07.872Z,10.33
2018-09-23T19:36:36.885Z,9.83
2018-09-23T19:39:07.505Z,10.40
2018-09-23T19:41:36.455Z,10.30
2018-09-23T19:44:05.127Z,9.97
2018-09-23T19:46:33.441Z,11.33
2018-09-23T19:49:01.629Z,10.43
2018-09-23T19:51:30.010Z,9.83
2018-09-23T19:53:58.115Z,9.90
2018-09-23T19:56:26.402Z,10.00
2018-09-23T19:58:54.616Z,10.47
2018-09-23T20:01:23.499Z,10.20
2018-09-23T20:03:52.190Z,10.20
2018-09-23T20:06:20.473Z,10.83
2018-09-23T20:08:48.729Z,10.87
2018-09-23T20:11:16.987Z,11.40
2018-09-23T20:13:45.712Z,11.30
2018-09-23T20:16:14.257Z,10.23
2018-09-23T20:18:42.526Z,10.50
2018-09-23T20:21:10.783Z,11.40
2018-09-23T20:23:39.075Z,10.10
2018-09-23T20:26:07.422Z,10.67
2018-09-23T20:28:35.882Z,10.20
2018-09-23T20:31:04.457Z,10.17
2018-09-23T20:33:33.226Z,10.23
2018-09-23T20:36:01.679Z,10.90
2018-09-23T20:38:29.861Z,11.20
2018-09-23T20:40:58.682Z,10.90
2018-09-23T20:43:26.925Z,11.50
2018-09-23T20:45:55.596Z,11.73
2018-09-23T20:48:24.568Z,10.03
2018-09-23T20:50:53.876Z,9.97
2018-09-23T20:53:22.102Z,10.40
2018-09-23T20:55:51.121Z,11.33
2018-09-23T20:58:19.333Z,10.07
2018-09-23T21:00:48.000Z,11.60
2018-09-23T21:03:16.213Z,10.80
2018-09-23T21:05:44.847Z,11.47
2018-09-23T21:08:13.420Z,10.10
2018-09-23T21:10:41.692Z,9.60
2018-09-23T21:13:09.935Z,10.63
2018-09-23T21:15:38.629Z,11.37
2018-09-23T21:18:07.643Z,9.97
2018-09-23T21:20:35.950Z,10.27
2018-09-23T21:23:04.184Z,10.80
2018-09-23T21:25:32.278Z,11.10
2018-09-23T21:28:00.534Z,10.93
2018-09-23T21:30:28.649Z,11.10
2018-09-23T21:32:56.928Z,9.70
2018-09-23T21:35:25.018Z,9.90
2018-09-23T21:37:53.440Z,11.37
2018-09-23T21:40:21.680Z,10.97
2018-09-23T21:42:49.910Z,11.00
2018-09-23T21:45:18.004Z,10.20
2018-09-23T21:47:46.148Z,10.87
2018-09-23T21:50:14.599Z,11.47
2018-09-23T21:52:43.132Z,10.07
2018-09-23T21:55:11.317Z,10.87
2018-09-23T21:57:39.408Z,10.03
2018-09-23T22:00:08.571Z,9.90
2018-09-23T22:02:36.699Z,12.17
2018-09-23T22:05:04.843Z,10.67
2018-09-23T22:07:33.001Z,10.90
2018-09-23T22:10:01.174Z,11.43
2018-09-23T22:12:29.255Z,10.80
2018-09-23T22:14:57.318Z,10.67
2018-09-23T22:17:25.482Z,10.27
2018-09-23T22:19:53.507Z,11.43
2018-09-23T22:22:21.648Z,10.10
2018-09-23T22:24:49.888Z,11.10
2018-09-23T22:27:18.096Z,10.70
2018-09-23T22:29:46.333Z,11.53
2018-09-23T22:32:14.556Z,12.00
2018-09-23T22:34:42.661Z,10.90
2018-09-23T22:37:10.698Z,9.80
2018-09-23T22:39:38.835Z,10.53
2018-09-23T22:42:07.344Z,11.53
2018-09-23T22:44:35.485Z,10.77
2018-09-23T22:47:03.668Z,10.83
2018-09-23T22:49:31.870Z,10.93
2018-09-23T22:52:00.057Z,10.80
2018-09-23T22:54:28.153Z,11.10
2018-09-23T22:56:56.222Z,11.43
2018-09-23T22:59:24.406Z,11.67
2018-09-23T23:01:52.511Z,10.57
2018-09-23T23:04:20.719Z,10.07
2018-09-23T23:06:48.865Z,9.80
2018-09-23T23:09:16.955Z,10.53
2018-09-23T23:11:45.103Z,11.33
2018-09-23T23:14:13.209Z,11.13
2018-09-23T23:16:41.326Z,10.87
2018-09-23T23:19:09.540Z,11.27
2018-09-23T23:21:37.899Z,9.90
2018-09-23T23:24:06.049Z,11.00
2018-09-23T23:26:34.170Z,11.93
2018-09-23T23:29:02.305Z,11.17
2018-09-23T23:31:30.343Z,10.63
2018-09-23T23:33:58.450Z,12.17
2018-09-23T23:36:26.820Z,11.70
2018-09-23T23:38:54.868Z,10.97
2018-09-23T23:41:22.874Z,11.47
2018-09-23T23:43:50.996Z,10.80
2018-09-23T23:46:19.177Z,10.73
2018-09-23T23:48:47.270Z,11.50
2018-09-23T23:51:15.385Z,11.23
2018-09-23T23:53:43.557Z,10.73
2018-09-23T23:56:11.828Z,12.57
2018-09-23T23:58:39.839Z,11.43
